Time;durP1;ratioP1;P1;durP2;ratioP2;P2;SDS_P1;SDS_P2;PMS_P1;PMS_P2;Temp;Humidity;BMP_temperature;BMP_pressure;BME280_temperature;BME280_humidity;BME280_pressure;Samples;Min_cycle;Max_cycle;Signal;HPM_P1;HPM_P2
2021/09/21 00:02:25;;;;;;;12.88;4.47;;;;;;;5.79;89.11;99535.63;4950513;29;20678;-76
2021/09/21 00:04:51;;;;;;;15.25;4.40;;;;;;;5.77;89.50;99511.25;4936802;29;20042;-76
2021/09/21 00:07:16;;;;;;;17.48;3.95;;;;;;;5.83;88.95;99516.13;4936844;29;20036;-78
2021/09/21 00:09:45;;;;;;;15.98;5.20;;;;;;;5.75;89.17;99497.41;4933066;29;20040;-78
2021/09/21 00:12:10;;;;;;;10.73;4.47;;;;;;;5.76;89.35;99513.03;4950644;29;20489;-75
2021/09/21 00:14:38;;;;;;;10.15;4.13;;;;;;;5.79;89.11;99512.00;4935656;29;20095;-74
2021/09/21 00:17:04;;;;;;;14.48;4.28;;;;;;;5.76;88.63;99499.09;4920417;29;20044;-73
2021/09/21 00:19:32;;;;;;;13.63;4.10;;;;;;;5.77;88.66;99496.38;4936737;29;20035;-72
2021/09/21 00:21:59;;;;;;;8.63;3.58;;;;;;;5.70;88.71;99494.22;4951317;29;20562;-73
2021/09/21 00:24:25;;;;;;;8.43;3.33;;;;;;;5.70;88.90;99497.66;4950753;29;20058;-72
2021/09/21 00:26:51;;;;;;;13.98;4.18;;;;;;;5.66;89.29;99497.00;4949017;29;20059;-74
2021/09/21 00:29:17;;;;;;;11.15;4.47;;;;;;;5.70;89.29;99502.91;4952533;29;20059;-72
2021/09/21 00:31:49;;;;;;;14.00;3.67;;;;;;;5.71;88.92;99498.50;4952561;29;20473;-75
2021/09/21 00:34:15;;;;;;;10.68;4.10;;;;;;;5.70;88.87;99487.16;4946163;29;20078;-71
2021/09/21 00:36:42;;;;;;;10.45;3.65;;;;;;;5.71;89.33;99495.88;4919596;29;20048;-72
2021/09/21 00:39:10;;;;;;;10.85;3.42;;;;;;;5.73;89.14;99492.25;4935159;29;20555;-73
2021/09/21 00:41:38;;;;;;;11.57;3.58;;;;;;;5.77;89.10;99491.13;4946090;29;20039;-74
2021/09/21 00:44:04;;;;;;;7.88;3.88;;;;;;;5.76;89.34;99478.09;4939720;29;20134;-76
2021/09/21 00:46:30;;;;;;;7.93;3.28;;;;;;;5.79;89.11;99480.53;4950108;28;20030;-75
2021/09/21 00:48:56;;;;;;;12.45;3.58;;;;;;;5.79;88.82;99483.97;4969052;28;20031;-76
2021/09/21 00:51:24;;;;;;;11.85;5.97;;;;;;;5.76;88.65;99472.84;4973548;28;20125;-73
2021/09/21 00:53:50;;;;;;;11.15;3.92;;;;;;;5.77;88.85;99487.63;4951502;28;20114;-73
2021/09/21 00:56:16;;;;;;;10.80;3.67;;;;;;;5.77;89.33;99461.41;4954562;29;20405;-72
2021/09/21 00:58:42;;;;;;;10.15;3.00;;;;;;;5.82;89.18;99477.72;4936847;29;20047;-74
2021/09/21 01:01:08;;;;;;;10.00;3.22;;;;;;;5.80;88.99;99479.59;4954591;29;20039;-72
2021/09/21 01:03:34;;;;;;;6.85;2.75;;;;;;;5.80;89.34;99484.84;4945573;29;20466;-74
2021/09/21 01:06:00;;;;;;;9.23;3.05;;;;;;;5.81;88.81;99487.38;4945261;29;20043;-76
2021/09/21 01:08:30;;;;;;;10.38;3.15;;;;;;;5.79;88.89;99485.78;4954177;29;20079;-75
2021/09/21 01:10:56;;;;;;;10.57;3.20;;;;;;;5.83;88.53;99482.00;4918975;29;20035;-75
2021/09/21 01:13:22;;;;;;;14.38;4.10;;;;;;;5.89;88.24;99484.28;4936249;29;20048;-77
2021/09/21 01:15:48;;;;;;;15.13;3.92;;;;;;;5.87;88.53;99480.06;4948033;29;20038;-76
2021/09/21 01:18:14;;;;;;;8.68;2.70;;;;;;;5.81;88.88;99465.53;4944984;29;20373;-73
2021/09/21 01:20:43;;;;;;;14.35;2.60;;;;;;;5.85;88.14;99489.81;4938053;29;20425;-72
2021/09/21 01:23:08;;;;;;;14.13;3.78;;;;;;;5.88;88.53;99481.75;4952634;28;20042;-76
2021/09/21 01:25:43;;;;;;;14.63;3.70;;;;;;;5.89;88.65;99479.03;4973340;28;20046;-74
2021/09/21 01:28:12;;;;;;;10.13;3.33;;;;;;;5.91;88.44;99487.66;4973897;28;20082;-72
2021/09/21 01:30:41;;;;;;;8.52;3.50;;;;;;;5.90;88.59;99475.47;4956385;28;20034;-76
2021/09/21 01:33:07;;;;;;;;;;;;;;;5.95;88.80;99467.31;4936943;29;20404;-73
2021/09/21 01:35:35;;;;;;;15.10;3.70;;;;;;;5.96;88.89;99479.50;4922378;29;20021;-73
2021/09/21 01:38:01;;;;;;;15.88;3.70;;;;;;;5.96;88.88;99469.84;4941431;29;20158;-74
2021/09/21 01:40:27;;;;;;;14.48;3.83;;;;;;;5.94;88.94;99474.38;4934588;29;20027;-74
2021/09/21 01:42:53;;;;;;;11.82;2.95;;;;;;;5.96;89.20;99479.50;4914168;29;20421;-73
2021/09/21 01:45:21;;;;;;;22.05;4.78;;;;;;;5.93;88.90;99459.53;4934931;29;20031;-72
2021/09/21 01:47:58;;;;;;;9.85;3.03;;;;;;;5.92;88.73;99457.84;4951938;29;20507;-73
2021/09/21 01:53:22;;;;;;;15.30;3.42;;;;;;;5.96;88.79;99480.34;4937025;28;20051;-73
2021/09/21 01:58:52;;;;;;;15.00;4.20;;;;;;;5.97;88.97;99450.53;4949312;28;20045;-71
2021/09/21 02:01:19;;;;;;;;;;;;;;;5.99;88.73;99453.94;4961358;28;20035;-77
2021/09/21 02:03:50;;;;;;;12.32;3.40;;;;;;;5.99;88.87;99448.69;4973007;28;20037;-74
2021/09/21 02:06:21;;;;;;;11.57;4.45;;;;;;;5.98;88.57;99452.25;4947197;28;20578;-70
2021/09/21 02:08:50;;;;;;;10.55;4.20;;;;;;;5.94;88.41;99456.00;4935294;29;20043;-73
2021/09/21 02:11:16;;;;;;;9.10;4.18;;;;;;;6.01;88.54;99451.22;4942716;29;20042;-72
2021/09/21 02:13:57;;;;;;;13.38;4.65;;;;;;;5.99;89.21;99459.19;4953497;29;20389;-72
2021/09/21 02:16:34;;;;;;;18.38;4.93;;;;;;;6.04;88.78;99455.44;4942118;29;20079;-72
2021/09/21 02:19:00;;;;;;;12.50;6.00;;;;;;;6.04;88.41;99447.56;4953211;29;20128;-73
2021/09/21 02:21:26;;;;;;;10.77;4.93;;;;;;;5.99;88.74;99448.69;4942821;29;20493;-72
2021/09/21 02:23:57;;;;;;;12.43;4.85;;;;;;;6.03;88.42;99443.25;4934204;29;20044;-73
2021/09/21 02:26:23;;;;;;;9.88;4.50;;;;;;;6.02;89.13;99454.69;4945139;29;20522;-72
2021/09/21 02:28:49;;;;;;;11.73;5.38;;;;;;;5.97;88.61;99431.31;4947738;29;20044;-73
2021/09/21 02:31:15;;;;;;;11.10;4.70;;;;;;;5.96;89.11;99446.22;4934288;29;20044;-75
2021/09/21 02:33:41;;;;;;;11.40;5.18;;;;;;;6.03;88.49;99440.63;4947250;29;20081;-72
2021/09/21 02:36:07;;;;;;;11.32;5.40;;;;;;;6.02;88.68;99438.94;4951075;28;20031;-76
2021/09/21 02:38:37;;;;;;;11.20;4.70;;;;;;;6.05;88.53;99442.22;4952126;29;20054;-77
2021/09/21 02:41:04;;;;;;;9.38;4.88;;;;;;;6.04;88.86;99447.56;4946761;29;20040;-73
2021/09/21 02:43:30;;;;;;;16.75;5.30;;;;;;;6.03;88.51;99435.38;4935872;29;20036;-75
2021/09/21 02:45:59;;;;;;;8.05;4.38;;;;;;;6.08;88.36;99441.16;4951900;29;20125;-73
2021/09/21 02:48:24;;;;;;;8.82;4.00;;;;;;;6.10;88.47;99434.06;4941639;29;20027;-76
2021/09/21 02:50:50;;;;;;;20.88;5.68;;;;;;;6.08;88.36;99430.66;4946827;29;20441;-74
2021/09/21 02:53:17;;;;;;;10.70;4.68;;;;;;;6.12;88.74;99424.31;4934774;29;20036;-70
2021/09/21 02:55:43;;;;;;;19.75;4.88;;;;;;;6.06;88.13;99425.53;4936012;29;20035;-75
2021/09/21 02:58:11;;;;;;;11.88;4.90;;;;;;;6.07;88.77;99437.72;4946671;29;20115;-71
2021/09/21 03:00:37;;;;;;;15.50;5.00;;;;;;;6.07;88.85;99423.72;4944907;29;20035;-78
2021/09/21 03:03:04;;;;;;;21.27;4.82;;;;;;;6.07;88.63;99421.09;4946814;29;20477;-72
2021/09/21 03:05:35;;;;;;;11.65;4.38;;;;;;;6.03;89.05;99422.25;4935168;29;20047;-76
2021/09/21 03:08:24;;;;;;;16.83;4.78;;;;;;;6.08;89.32;99420.16;4945859;29;20039;-73
2021/09/21 03:18:49;;;;;;;10.65;4.38;;;;;;;6.06;88.42;99406.31;4937222;29;20095;-73
2021/09/21 03:21:15;;;;;;;16.45;4.57;;;;;;;6.07;89.25;99414.09;4916727;29;20039;-70
2021/09/21 03:23:41;;;;;;;7.22;3.72;;;;;;;6.05;88.07;99417.75;4934587;29;20492;-71
2021/09/21 03:26:07;;;;;;;17.63;4.30;;;;;;;6.06;87.90;99424.69;4918309;29;20130;-73
2021/09/21 03:28:33;;;;;;;10.10;3.42;;;;;;;6.06;88.64;99419.44;4937409;29;20378;-72
2021/09/21 03:30:59;;;;;;;12.07;4.13;;;;;;;6.11;88.67;99409.50;4943758;29;20043;-76
2021/09/21 03:33:25;;;;;;;12.50;3.88;;;;;;;6.15;89.69;99413.59;4938932;29;20031;-74
2021/09/21 03:35:51;;;;;;;8.60;3.92;;;;;;;6.11;88.90;99425.25;4958580;28;20880;-71
2021/09/21 03:38:17;;;;;;;9.63;3.00;;;;;;;6.07;88.63;99415.84;4933706;29;20573;-71
2021/09/21 03:40:43;;;;;;;9.48;4.32;;;;;;;6.07;89.58;99408.84;4933365;29;20039;-72
2021/09/21 03:43:09;;;;;;;11.02;3.90;;;;;;;6.07;89.23;99413.22;4940581;28;20122;-73
2021/09/21 03:45:35;;;;;;;16.63;4.68;;;;;;;6.09;89.79;99404.34;4938950;28;20042;-75
2021/09/21 03:48:00;;;;;;;9.38;4.10;;;;;;;6.12;89.53;99416.44;4944383;28;20043;-73
2021/09/21 03:50:26;;;;;;;8.30;4.00;;;;;;;6.05;89.39;99399.38;4956274;28;20031;-76
2021/09/21 03:52:52;;;;;;;14.73;4.75;;;;;;;6.10;89.25;99410.44;4954492;29;20043;-71
2021/09/21 03:55:19;;;;;;;7.90;3.53;;;;;;;6.07;88.98;99413.22;4940593;28;20044;-71
2021/09/21 03:57:45;;;;;;;12.88;4.15;;;;;;;6.12;89.65;99413.81;4939309;29;20052;-70
2021/09/21 04:00:12;;;;;;;6.57;3.63;;;;;;;6.10;89.69;99406.00;4953129;29;20043;-77
2021/09/21 04:02:39;;;;;;;10.48;3.53;;;;;;;6.06;89.87;99420.28;4944998;29;20377;-74
2021/09/21 04:05:05;;;;;;;8.77;3.10;;;;;;;6.06;89.65;99401.06;4945301;29;20457;-74
2021/09/21 04:07:31;;;;;;;8.82;3.08;;;;;;;6.07;90.00;99402.72;4954888;28;20059;-72
2021/09/21 04:09:57;;;;;;;7.38;3.08;;;;;;;6.06;89.54;99411.56;4955983;28;20133;-78
2021/09/21 04:12:23;;;;;;;8.88;3.78;;;;;;;6.09;89.59;99392.97;4955024;29;20046;-74
2021/09/21 04:14:49;;;;;;;8.13;3.65;;;;;;;6.11;89.90;99409.50;4940973;29;20074;-74
2021/09/21 04:17:14;;;;;;;7.20;3.83;;;;;;;6.09;90.04;99393.84;4949132;29;20031;-76
2021/09/21 04:19:40;;;;;;;7.15;3.95;;;;;;;6.11;89.88;99391.13;4942567;28;20349;-78
2021/09/21 04:22:07;;;;;;;7.97;3.53;;;;;;;6.11;90.25;99389.31;4947402;29;20102;-72
2021/09/21 04:24:34;;;;;;;7.82;4.13;;;;;;;6.14;89.95;99401.41;4953406;28;20046;-71
2021/09/21 04:27:01;;;;;;;7.07;3.77;;;;;;;6.17;89.84;99397.75;4944832;28;20118;-76
2021/09/21 04:29:26;;;;;;;6.50;3.72;;;;;;;6.15;90.13;99384.72;4918455;29;20032;-77
2021/09/21 04:31:55;;;;;;;7.10;3.78;;;;;;;6.18;89.83;99389.78;4918128;29;20054;-71
2021/09/21 04:34:20;;;;;;;;;;;;;;;6.14;89.84;99393.53;4936789;29;20049;-76
2021/09/21 04:36:46;;;;;;;6.70;3.72;;;;;;;6.20;90.28;99398.41;4935958;29;19914;-73
2021/09/21 04:39:13;;;;;;;6.82;3.67;;;;;;;6.17;90.51;99398.59;4952567;29;20047;-73
2021/09/21 04:41:39;;;;;;;6.45;3.67;;;;;;;6.18;89.63;99404.69;4954631;29;20149;-72
2021/09/21 04:44:06;;;;;;;7.82;3.80;;;;;;;6.18;89.96;99402.91;4950452;29;20039;-72
2021/09/21 04:46:33;;;;;;;10.07;4.00;;;;;;;6.20;89.64;99398.41;4954641;29;20035;-73
2021/09/21 04:49:01;;;;;;;11.03;3.53;;;;;;;6.26;89.57;99403.25;4954581;29;20405;-73
2021/09/21 04:51:28;;;;;;;8.00;3.80;;;;;;;6.26;89.71;99411.13;4952571;29;20042;-75
2021/09/21 04:53:57;;;;;;;8.05;4.28;;;;;;;6.26;89.60;99403.25;4954516;29;20271;-72
2021/09/21 04:56:23;;;;;;;7.22;4.10;;;;;;;6.28;89.25;99406.63;4938743;29;20122;-72
2021/09/21 04:58:49;;;;;;;8.30;4.30;;;;;;;6.30;89.68;99394.22;4936995;29;20123;-72
2021/09/21 05:01:15;;;;;;;10.38;3.80;;;;;;;6.34;89.82;99396.69;4936816;29;20370;-73
2021/09/21 05:03:40;;;;;;;9.82;4.03;;;;;;;6.37;89.05;99409.59;4955219;29;20031;-75
2021/09/21 05:06:07;;;;;;;6.43;3.63;;;;;;;6.34;89.83;99408.00;4955331;29;20063;-74
2021/09/21 05:08:33;;;;;;;8.95;3.90;;;;;;;6.37;89.90;99405.22;4954945;29;20159;-76
2021/09/21 05:10:59;;;;;;;11.90;3.95;;;;;;;6.33;89.32;99398.47;4939576;29;20046;-74
2021/09/21 05:13:24;;;;;;;9.18;3.90;;;;;;;6.34;89.27;99402.75;4956556;29;20047;-76
2021/09/21 05:15:51;;;;;;;8.65;3.92;;;;;;;6.40;89.41;99406.78;4949464;29;20044;-71
2021/09/21 05:18:17;;;;;;;5.63;3.47;;;;;;;6.36;89.57;99397.44;4936376;29;20044;-75
2021/09/21 05:20:43;;;;;;;6.85;3.88;;;;;;;6.40;90.29;99404.16;4934768;29;20111;-74
2021/09/21 05:23:08;;;;;;;6.50;3.38;;;;;;;6.37;89.82;99402.56;4935971;29;20039;-78
2021/09/21 05:25:35;;;;;;;6.10;3.80;;;;;;;6.37;89.47;99394.69;4936802;29;20051;-75
2021/09/21 05:28:02;;;;;;;10.57;3.97;;;;;;;6.39;89.38;99410.34;4951232;29;20357;-74
2021/09/21 05:30:28;;;;;;;6.93;3.63;;;;;;;6.41;89.49;99403.22;4946735;29;20633;-73
2021/09/21 05:32:53;;;;;;;6.32;3.55;;;;;;;6.42;90.06;99408.38;4919142;29;20068;-74
2021/09/21 05:35:19;;;;;;;8.93;3.88;;;;;;;6.40;89.32;99402.38;4935761;29;20069;-72
2021/09/21 05:37:45;;;;;;;8.57;3.65;;;;;;;6.42;89.25;99391.78;4952866;29;20186;-77
2021/09/21 05:40:16;;;;;;;8.45;4.63;;;;;;;6.44;89.46;99417.00;4952520;29;20043;-73
2021/09/21 05:42:42;;;;;;;6.80;3.92;;;;;;;6.45;89.79;99396.81;4944183;29;20035;-74
2021/09/21 05:45:08;;;;;;;8.50;3.72;;;;;;;6.46;89.54;99403.78;4941896;29;20139;-77
2021/09/21 05:47:35;;;;;;;5.35;3.28;;;;;;;6.44;89.03;99411.75;4967529;28;20050;-76
2021/09/21 05:50:01;;;;;;;7.60;3.65;;;;;;;6.46;89.27;99409.03;4956415;28;20480;-74
2021/09/21 05:52:27;;;;;;;8.57;3.80;;;;;;;6.44;89.61;99401.25;4945071;29;20044;-76
2021/09/21 05:54:53;;;;;;;8.10;4.32;;;;;;;6.47;89.66;99402.84;4961121;28;20060;-78
2021/09/21 05:57:19;;;;;;;7.15;3.72;;;;;;;6.47;90.14;99410.72;4942624;29;20302;-72
2021/09/21 05:59:46;;;;;;;7.43;3.53;;;;;;;6.46;89.37;99388.84;4953863;29;20047;-73
2021/09/21 06:02:12;;;;;;;6.78;3.83;;;;;;;6.49;89.46;99400.94;4950887;29;20175;-74
2021/09/21 06:04:38;;;;;;;8.38;4.10;;;;;;;6.54;89.84;99396.25;4922836;29;20340;-73
2021/09/21 06:07:04;;;;;;;8.23;3.70;;;;;;;6.57;89.94;99390.78;4936809;29;20661;-71
2021/09/21 06:09:30;;;;;;;7.82;3.85;;;;;;;6.55;89.84;99384.78;4942894;29;20054;-75
2021/09/21 06:11:55;;;;;;;8.57;4.05;;;;;;;6.53;89.39;99401.56;4934513;29;20070;-74
2021/09/21 06:14:21;;;;;;;8.30;4.93;;;;;;;6.56;88.78;99394.34;4954117;28;20118;-76
2021/09/21 06:16:47;;;;;;;9.75;4.00;;;;;;;6.57;90.03;99398.66;4945211;28;20031;-76
2021/09/21 06:19:13;;;;;;;7.60;3.63;;;;;;;6.56;89.16;99390.88;4942880;29;20123;-76
2021/09/21 06:21:39;;;;;;;10.82;4.28;;;;;;;6.61;89.88;99396.69;4948282;29;20514;-72
2021/09/21 06:24:04;;;;;;;7.15;4.18;;;;;;;6.60;88.96;99389.72;4942010;29;20062;-74
2021/09/21 06:26:33;;;;;;;6.43;3.83;;;;;;;6.60;89.25;99395.84;4942216;28;20039;-74
2021/09/21 06:29:00;;;;;;;5.72;3.75;;;;;;;6.66;89.54;99393.75;4942095;29;20035;-74
2021/09/21 06:31:27;;;;;;;6.15;3.55;;;;;;;6.63;89.21;99390.38;4953141;28;20446;-76
2021/09/21 06:33:53;;;;;;;9.80;5.35;;;;;;;6.63;89.13;99390.38;4947342;28;20062;-73
2021/09/21 06:36:19;;;;;;;12.57;7.55;;;;;;;6.63;89.27;99390.38;4938308;29;20117;-73
2021/09/21 06:38:45;;;;;;;13.45;7.53;;;;;;;6.63;89.21;99408.78;4941136;29;20041;-73
2021/09/21 06:41:11;;;;;;;9.40;4.70;;;;;;;6.68;89.75;99415.50;4953707;28;20397;-74
2021/09/21 06:43:37;;;;;;;5.95;3.05;;;;;;;6.61;89.03;99405.38;4950905;28;20051;-75
2021/09/21 06:46:03;;;;;;;8.52;3.80;;;;;;;6.61;89.10;99408.03;4934593;29;20179;-78
2021/09/21 06:48:29;;;;;;;6.05;3.17;;;;;;;6.63;88.88;99406.16;4962917;28;20035;-77
2021/09/21 06:50:55;;;;;;;6.03;3.10;;;;;;;6.62;89.46;99411.50;4944365;29;20039;-79
2021/09/21 06:53:22;;;;;;;4.88;2.97;;;;;;;6.68;89.33;99407.63;4953987;28;20090;-77
2021/09/21 06:55:48;;;;;;;6.47;3.60;;;;;;;6.62;89.33;99409.72;4946821;29;20378;-76
2021/09/21 06:58:13;;;;;;;7.25;3.90;;;;;;;6.62;89.47;99409.72;4941386;29;20481;-78
2021/09/21 07:00:42;;;;;;;5.55;3.30;;;;;;;6.62;89.61;99420.22;4965135;28;20073;-78
2021/09/21 07:03:08;;;;;;;10.73;5.47;;;;;;;6.66;89.20;99412.16;4974008;28;20591;-77
2021/09/21 07:05:34;;;;;;;6.65;4.13;;;;;;;6.70;89.55;99417.09;4986295;28;20058;-77
2021/09/21 07:08:00;;;;;;;5.65;3.40;;;;;;;6.73;89.74;99414.28;4962587;28;20460;-77
2021/09/21 07:10:29;;;;;;;6.50;3.50;;;;;;;6.75;89.46;99414.16;4968873;28;20492;-78
2021/09/21 07:12:55;;;;;;;7.93;3.35;;;;;;;6.78;89.03;99406.94;4951265;28;20481;-77
2021/09/21 07:15:24;;;;;;;6.22;3.40;;;;;;;6.79;89.17;99413.00;4944290;29;20032;-79
2021/09/21 07:17:52;;;;;;;5.28;2.72;;;;;;;6.80;88.69;99407.69;4958268;29;20051;-79
2021/09/21 07:20:22;;;;;;;5.35;3.22;;;;;;;6.83;88.78;99417.16;4958069;29;20098;-82
2021/09/21 07:22:48;;;;;;;6.85;3.17;;;;;;;6.84;89.07;99412.72;4938848;28;20040;-81
2021/09/21 07:25:14;;;;;;;6.13;3.33;;;;;;;6.84;89.19;99434.63;4948234;29;20378;-81
2021/09/21 07:27:40;;;;;;;10.07;3.40;;;;;;;6.85;88.79;99419.66;4963278;29;20057;-82
2021/09/21 07:30:07;;;;;;;14.05;5.03;;;;;;;6.90;89.37;99415.81;4939257;29;20400;-78
2021/09/21 07:32:34;;;;;;;11.47;4.37;;;;;;;6.85;88.44;99420.50;4909711;29;20473;-82
2021/09/21 07:35:01;;;;;;;12.15;4.13;;;;;;;6.90;89.34;99413.19;4919221;29;20318;-81
2021/09/21 07:37:27;;;;;;;8.90;3.80;;;;;;;6.92;88.70;99410.44;4976472;28;20046;-80
2021/09/21 07:39:53;;;;;;;11.25;3.05;;;;;;;6.91;88.84;99416.63;4943597;29;20047;-82
2021/09/21 07:42:18;;;;;;;7.18;3.05;;;;;;;6.90;88.76;99420.19;4926461;29;20035;-81
2021/09/21 07:44:46;;;;;;;6.05;2.90;;;;;;;6.85;88.64;99420.50;4913434;29;20039;-81
2021/09/21 07:47:13;;;;;;;7.80;3.90;;;;;;;6.93;89.03;99410.34;4927671;28;20027;-78
2021/09/21 07:49:39;;;;;;;6.38;3.72;;;;;;;6.93;88.78;99406.88;4947198;28;20075;-80
2021/09/21 07:52:04;;;;;;;5.40;2.85;;;;;;;6.98;88.57;99420.56;4977999;28;20085;-79
2021/09/21 07:54:30;;;;;;;6.75;2.70;;;;;;;6.93;88.20;99412.13;4977321;28;20484;-79
2021/09/21 07:56:56;;;;;;;7.82;3.70;;;;;;;6.99;88.83;99406.47;4978522;28;20054;-76
2021/09/21 07:59:22;;;;;;;9.10;4.10;;;;;;;7.05;88.46;99407.81;4977392;28;20039;-83
2021/09/21 08:01:48;;;;;;;7.60;3.78;;;;;;;7.09;88.48;99411.94;4976550;28;20027;-80
2021/09/21 08:04:14;;;;;;;7.35;3.88;;;;;;;7.07;88.06;99403.31;4977283;28;20153;-80
2021/09/21 08:06:40;;;;;;;6.85;3.78;;;;;;;7.14;88.59;99404.59;4977853;28;20031;-78
2021/09/21 08:09:06;;;;;;;7.75;3.78;;;;;;;7.10;88.18;99398.69;4975542;28;20039;-79
2021/09/21 08:11:32;;;;;;;10.50;3.80;;;;;;;7.15;88.28;99390.47;4976581;28;20049;-80
2021/09/21 08:14:03;;;;;;;11.02;5.10;;;;;;;7.14;87.76;99407.22;4996329;28;20379;-83
2021/09/21 08:16:30;;;;;;;10.45;4.57;;;;;;;7.20;88.44;99398.06;4979930;28;20137;-79
2021/09/21 08:18:59;;;;;;;6.75;3.38;;;;;;;7.24;87.88;99404.78;4978911;28;20063;-79
2021/09/21 08:21:26;;;;;;;6.78;3.70;;;;;;;7.19;88.14;99413.00;4976995;28;20043;-78
2021/09/21 08:23:53;;;;;;;8.95;4.53;;;;;;;7.21;88.35;99402.38;4974422;28;20042;-78
2021/09/21 08:26:22;;;;;;;8.43;4.63;;;;;;;7.21;88.06;99400.59;4994741;28;20057;-81
2021/09/21 08:28:50;;;;;;;8.13;4.05;;;;;;;7.22;88.67;99397.00;4977063;28;20046;-79
2021/09/21 08:31:26;;;;;;;8.93;4.15;;;;;;;7.15;88.18;99401.00;4975169;28;20034;-79
2021/09/21 08:33:52;;;;;;;10.25;5.22;;;;;;;7.21;87.94;99394.50;4975625;28;20567;-80
2021/09/21 08:36:21;;;;;;;7.93;4.70;;;;;;;7.24;87.94;99394.28;4974819;28;20380;-79
2021/09/21 08:38:56;;;;;;;7.88;3.95;;;;;;;7.28;88.32;99388.72;4960364;28;20038;-81
2021/09/21 08:41:26;;;;;;;7.57;4.25;;;;;;;7.30;88.00;99399.13;4943478;29;20073;-77
2021/09/21 08:43:52;;;;;;;10.65;4.55;;;;;;;7.31;88.17;99399.97;4947982;29;20039;-79
2021/09/21 08:46:21;;;;;;;6.75;4.15;;;;;;;7.24;87.67;99410.91;4954307;29;20066;-79
2021/09/21 08:48:49;;;;;;;7.15;3.83;;;;;;;7.28;87.46;99407.13;4939976;29;20043;-79
2021/09/21 08:51:16;;;;;;;10.18;5.40;;;;;;;7.34;87.20;99411.13;4943434;29;20040;-78
2021/09/21 08:53:45;;;;;;;10.38;5.30;;;;;;;7.39;87.45;99402.91;4937239;29;20047;-78
2021/09/21 08:56:11;;;;;;;8.73;4.97;;;;;;;7.45;87.51;99410.38;4929393;29;20449;-79
2021/09/21 08:58:36;;;;;;;13.77;6.53;;;;;;;7.53;87.55;99410.72;4951317;29;20104;-78
2021/09/21 09:01:15;;;;;;;11.93;5.65;;;;;;;7.46;87.04;99419.97;4952882;29;20043;-82
2021/09/21 09:04:03;;;;;;;10.07;5.13;;;;;;;7.47;87.66;99405.03;4923995;29;20358;-81
2021/09/21 09:06:43;;;;;;;11.20;5.63;;;;;;;7.34;87.52;99405.88;4926183;29;20035;-78
2021/09/21 09:09:23;;;;;;;12.07;5.65;;;;;;;7.26;87.83;99414.28;4956814;29;20031;-79
2021/09/21 09:11:54;;;;;;;12.43;6.57;;;;;;;7.26;87.43;99408.16;4944496;29;20549;-84
2021/09/21 09:14:24;;;;;;;10.23;5.72;;;;;;;7.28;87.39;99417.63;4919583;29;20039;-79
2021/09/21 09:16:54;;;;;;;11.80;5.45;;;;;;;7.25;87.23;99411.75;4934966;29;20078;-79
2021/09/21 09:19:21;;;;;;;11.50;5.65;;;;;;;7.19;87.57;99413.00;4936570;29;20167;-81
2021/09/21 09:21:49;;;;;;;7.88;4.90;;;;;;;7.25;87.45;99412.59;4935199;29;20032;-81
2021/09/21 09:24:15;;;;;;;11.30;5.85;;;;;;;7.24;87.72;99412.69;4936679;29;20417;-80
2021/09/21 09:26:44;;;;;;;13.98;5.82;;;;;;;7.29;88.10;99406.19;4908102;29;20047;-78
2021/09/21 09:29:24;;;;;;;10.80;6.45;;;;;;;7.29;88.03;99414.06;4936933;29;20036;-81
2021/09/21 09:32:09;;;;;;;11.23;6.55;;;;;;;7.31;87.99;99423.66;4909391;29;20042;-80
2021/09/21 09:35:20;;;;;;;;;;;;;;;;;;;;;
2021/09/21 09:38:03;;;;;;;12.55;7.15;;;;;;;7.28;88.00;99411.56;4915514;29;20048;-82
2021/09/21 09:41:20;;;;;;;12.75;6.50;;;;;;;7.26;87.77;99410.81;4930709;29;20042;-80
2021/09/21 09:43:46;;;;;;;12.82;5.90;;;;;;;7.26;87.85;99411.66;4913996;29;20039;-80
2021/09/21 09:46:16;;;;;;;14.10;6.00;;;;;;;7.19;88.00;99428.78;4912384;29;20448;-80
2021/09/21 09:48:56;;;;;;;12.65;6.95;;;;;;;7.25;88.09;99417.00;4908233;29;20035;-81
2021/09/21 09:51:35;;;;;;;11.27;6.47;;;;;;;7.25;87.94;99420.50;4925555;29;20063;-81
2021/09/21 09:54:09;;;;;;;12.32;6.93;;;;;;;7.26;87.93;99422.19;4941030;29;20043;-81
2021/09/21 09:56:42;;;;;;;14.13;7.70;;;;;;;7.24;87.72;99426.69;4910068;29;20055;-80
2021/09/21 09:59:10;;;;;;;15.88;6.88;;;;;;;7.26;88.39;99435.34;4909223;29;20062;-81
2021/09/21 10:01:42;;;;;;;13.27;6.75;;;;;;;7.34;88.01;99424.28;4954598;29;20050;-83
2021/09/21 10:04:27;;;;;;;12.10;6.07;;;;;;;7.36;87.39;99424.19;4907518;29;20032;-83
2021/09/21 10:07:20;;;;;;;13.40;7.25;;;;;;;7.29;87.80;99427.22;4888796;29;20060;-79
2021/09/21 10:09:55;;;;;;;12.75;7.10;;;;;;;7.29;87.81;99423.75;4888674;29;20051;-82
2021/09/21 10:12:24;;;;;;;12.13;6.68;;;;;;;7.26;87.95;99435.34;4902611;29;20055;-79
2021/09/21 10:14:55;;;;;;;12.60;6.45;;;;;;;7.26;87.47;99423.94;4867324;29;20052;-82
2021/09/21 10:17:37;;;;;;;17.63;8.20;;;;;;;7.31;87.26;99427.09;4870287;29;20116;-80
2021/09/21 10:21:07;;;;;;;;;;;;;;;;;;;;;
2021/09/21 10:23:52;;;;;;;15.57;7.47;;;;;;;7.28;87.16;99438.69;4855445;29;20360;-81
2021/09/21 10:26:49;;;;;;;12.30;6.72;;;;;;;7.33;87.77;99427.84;4875137;29;20045;-80
2021/09/21 10:32:49;;;;;;;10.82;5.95;;;;;;;7.21;87.87;99433.94;4883189;29;20553;-79
2021/09/21 10:36:07;;;;;;;;;;;;;;;;;;;;;
2021/09/21 10:38:37;;;;;;;12.93;7.65;;;;;;;7.14;88.55;99433.53;4871714;29;20040;-83
2021/09/21 10:41:19;;;;;;;13.75;6.85;;;;;;;7.12;88.25;99444.13;4853157;29;20043;-78
2021/09/21 10:44:07;;;;;;;12.95;8.15;;;;;;;7.13;88.39;99448.44;4886515;29;20048;-81
2021/09/21 10:46:56;;;;;;;15.43;7.85;;;;;;;7.14;88.64;99438.78;4909636;29;20036;-81
2021/09/21 10:49:36;;;;;;;17.92;9.15;;;;;;;7.18;88.61;99439.41;4941509;29;20047;-79
2021/09/21 10:55:31;;;;;;;17.55;8.80;;;;;;;7.15;88.77;99443.06;4901681;29;20486;-80
2021/09/21 10:58:45;;;;;;;13.93;7.35;;;;;;;7.15;88.73;99458.03;4885721;29;20052;-79
2021/09/21 11:01:14;;;;;;;14.27;7.03;;;;;;;7.16;88.57;99444.75;4884751;29;20162;-81
2021/09/21 11:03:40;;;;;;;17.63;8.85;;;;;;;7.20;88.39;99441.00;4852999;29;20131;-82
2021/09/21 11:06:08;;;;;;;;;;;;;;;7.22;87.89;99446.16;4882711;29;20044;-84
2021/09/21 11:08:35;;;;;;;17.80;8.18;;;;;;;7.23;88.48;99442.59;4864176;29;20007;-79
2021/09/21 11:11:04;;;;;;;12.70;7.30;;;;;;;7.15;88.45;99443.06;4896442;29;20547;-83
2021/09/21 11:13:33;;;;;;;12.15;7.50;;;;;;;7.14;88.07;99430.91;4864801;29;20041;-82
2021/09/21 11:16:01;;;;;;;16.30;8.32;;;;;;;7.19;88.42;99444.56;4895936;29;20040;-83
2021/09/21 11:18:28;;;;;;;;;;;;;;;7.21;88.38;99452.34;4899695;29;20549;-78
2021/09/21 11:21:00;;;;;;;16.38;7.20;;;;;;;7.17;88.43;99446.47;4882184;29;19911;-80
2021/09/21 11:23:29;;;;;;;11.98;6.97;;;;;;;7.16;88.37;99450.03;4882677;29;20036;-80
2021/09/21 11:25:57;;;;;;;23.02;7.20;;;;;;;7.20;88.51;99435.75;4883685;29;20585;-79
2021/09/21 11:28:26;;;;;;;13.48;6.65;;;;;;;7.18;88.51;99437.63;4865377;29;20033;-82
2021/09/21 11:30:54;;;;;;;17.48;8.10;;;;;;;7.04;88.43;99437.69;4852844;29;20478;-80
2021/09/21 11:33:22;;;;;;;15.13;7.53;;;;;;;7.12;88.59;99438.03;4935324;29;20047;-78
2021/09/21 11:35:50;;;;;;;18.83;6.75;;;;;;;7.16;88.60;99438.69;4924656;29;20188;-81
2021/09/21 11:38:17;;;;;;;15.50;8.35;;;;;;;7.11;88.41;99438.97;4939263;29;20048;-80
2021/09/21 11:40:44;;;;;;;22.17;8.00;;;;;;;7.17;88.85;99430.69;4923179;29;20473;-78
2021/09/21 11:43:12;;;;;;;18.27;7.82;;;;;;;7.24;87.93;99436.34;4941969;29;20039;-81
2021/09/21 11:45:39;;;;;;;22.80;9.82;;;;;;;7.20;88.20;99427.84;4924483;29;20128;-81
2021/09/21 11:48:10;;;;;;;30.33;10.55;;;;;;;7.21;88.04;99421.63;4940979;29;20063;-80
2021/09/21 11:50:36;;;;;;;21.15;9.00;;;;;;;7.27;87.86;99426.47;4913376;29;20039;-81
2021/09/21 11:53:06;;;;;;;27.07;9.50;;;;;;;7.22;87.90;99425.94;4944891;29;20036;-80
2021/09/21 11:55:34;;;;;;;17.05;8.18;;;;;;;7.28;88.28;99422.91;4926825;29;20576;-80
2021/09/21 11:58:02;;;;;;;19.50;7.45;;;;;;;7.27;87.69;99415.13;4890310;29;20094;-83
2021/09/21 12:00:36;;;;;;;24.83;8.10;;;;;;;7.28;87.33;99422.91;4905183;29;20032;-82
2021/09/21 12:03:05;;;;;;;24.33;8.43;;;;;;;7.31;87.37;99421.03;4919083;29;20114;-80
2021/09/21 12:05:32;;;;;;;16.83;8.07;;;;;;;7.36;88.19;99424.19;4905726;29;20039;-80
2021/09/21 12:08:06;;;;;;;26.63;9.70;;;;;;;7.32;87.99;99422.72;4937669;29;20040;-79
2021/09/21 12:10:32;;;;;;;20.95;9.68;;;;;;;7.34;87.70;99428.69;4938900;29;20050;-83
2021/09/21 12:13:18;;;;;;;17.20;9.63;;;;;;;7.36;87.87;99422.38;4941371;29;20528;-79